sensor_id;sensor_type;location;lat;lon;timestamp;P1;durP1;ratioP1;P2;durP2;ratioP2
5163;SDS011;2601;50.224;10.126;2022-07-11T00:00:05;1.60;;;1.50;;
5163;SDS011;2601;50.224;10.126;2022-07-11T00:02:33;3.10;;;1.60;;
5163;SDS011;2601;50.224;10.126;2022-07-11T00:05:00;2.07;;;1.87;;
5163;SDS011;2601;50.224;10.126;2022-07-11T00:07:27;5.33;;;2.03;;
5163;SDS011;2601;50.224;10.126;2022-07-11T00:09:53;2.33;;;2.23;;
5163;SDS011;2601;50.224;10.126;2022-07-11T00:12:19;1.60;;;1.50;;
5163;SDS011;2601;50.224;10.126;2022-07-11T00:14:46;1.97;;;1.87;;
5163;SDS011;2601;50.224;10.126;2022-07-11T00:17:15;2.17;;;1.60;;
5163;SDS011;2601;50.224;10.126;2022-07-11T00:19:41;2.20;;;2.00;;
5163;SDS011;2601;50.224;10.126;2022-07-11T00:22:06;3.43;;;1.50;;
5163;SDS011;2601;50.224;10.126;2022-07-11T00:24:33;1.43;;;1.33;;
5163;SDS011;2601;50.224;10.126;2022-07-11T00:26:59;2.73;;;1.60;;
5163;SDS011;2601;50.224;10.126;2022-07-11T00:29:25;1.40;;;1.30;;
5163;SDS011;2601;50.224;10.126;2022-07-11T00:31:51;1.53;;;1.43;;
5163;SDS011;2601;50.224;10.126;2022-07-11T00:34:17;1.50;;;1.33;;
5163;SDS011;2601;50.224;10.126;2022-07-11T00:36:43;1.50;;;1.40;;
5163;SDS011;2601;50.224;10.126;2022-07-11T00:39:09;1.57;;;1.40;;
5163;SDS011;2601;50.224;10.126;2022-07-11T00:41:35;2.30;;;2.10;;
5163;SDS011;2601;50.224;10.126;2022-07-11T00:44:00;1.63;;;1.53;;
5163;SDS011;2601;50.224;10.126;2022-07-11T00:46:27;1.80;;;1.57;;
5163;SDS011;2601;50.224;10.126;2022-07-11T00:48:56;1.57;;;1.47;;
5163;SDS011;2601;50.224;10.126;2022-07-11T00:51:23;2.33;;;1.70;;
5163;SDS011;2601;50.224;10.126;2022-07-11T00:53:50;1.70;;;1.60;;
5163;SDS011;2601;50.224;10.126;2022-07-11T00:56:22;1.53;;;1.43;;
5163;SDS011;2601;50.224;10.126;2022-07-11T00:58:49;1.70;;;1.60;;
5163;SDS011;2601;50.224;10.126;2022-07-11T01:01:17;1.80;;;1.70;;
5163;SDS011;2601;50.224;10.126;2022-07-11T01:03:43;1.40;;;1.30;;
5163;SDS011;2601;50.224;10.126;2022-07-11T01:06:09;1.70;;;1.60;;
5163;SDS011;2601;50.224;10.126;2022-07-11T01:08:35;1.30;;;1.20;;
5163;SDS011;2601;50.224;10.126;2022-07-11T01:11:03;1.30;;;1.20;;
5163;SDS011;2601;50.224;10.126;2022-07-11T01:13:34;1.30;;;1.17;;
5163;SDS011;2601;50.224;10.126;2022-07-11T01:16:07;2.90;;;1.20;;
5163;SDS011;2601;50.224;10.126;2022-07-11T01:18:43;1.60;;;1.43;;
5163;SDS011;2601;50.224;10.126;2022-07-11T01:21:34;2.13;;;1.30;;
5163;SDS011;2601;50.224;10.126;2022-07-11T01:23:59;1.60;;;1.50;;
5163;SDS011;2601;50.224;10.126;2022-07-11T01:26:26;1.50;;;1.40;;
5163;SDS011;2601;50.224;10.126;2022-07-11T01:28:53;1.60;;;1.47;;
5163;SDS011;2601;50.224;10.126;2022-07-11T01:31:22;1.70;;;1.60;;
5163;SDS011;2601;50.224;10.126;2022-07-11T01:33:48;3.53;;;1.50;;
5163;SDS011;2601;50.224;10.126;2022-07-11T01:36:15;2.10;;;2.00;;
5163;SDS011;2601;50.224;10.126;2022-07-11T01:38:40;1.70;;;1.60;;
5163;SDS011;2601;50.224;10.126;2022-07-11T01:41:06;1.90;;;1.70;;
5163;SDS011;2601;50.224;10.126;2022-07-11T01:43:33;2.13;;;1.57;;
5163;SDS011;2601;50.224;10.126;2022-07-11T01:45:59;2.13;;;1.60;;
5163;SDS011;2601;50.224;10.126;2022-07-11T01:48:24;1.90;;;1.80;;
5163;SDS011;2601;50.224;10.126;2022-07-11T01:50:50;1.43;;;1.33;;
5163;SDS011;2601;50.224;10.126;2022-07-11T01:53:16;1.80;;;1.70;;
5163;SDS011;2601;50.224;10.126;2022-07-11T01:55:42;1.30;;;1.20;;
5163;SDS011;2601;50.224;10.126;2022-07-11T01:58:08;1.67;;;1.57;;
5163;SDS011;2601;50.224;10.126;2022-07-11T02:00:34;1.20;;;1.10;;
5163;SDS011;2601;50.224;10.126;2022-07-11T02:03:00;1.80;;;1.70;;
5163;SDS011;2601;50.224;10.126;2022-07-11T02:05:26;3.33;;;1.83;;
5163;SDS011;2601;50.224;10.126;2022-07-11T02:07:51;1.60;;;1.50;;
5163;SDS011;2601;50.224;10.126;2022-07-11T02:10:36;1.50;;;1.40;;
5163;SDS011;2601;50.224;10.126;2022-07-11T02:13:02;1.70;;;1.60;;
5163;SDS011;2601;50.224;10.126;2022-07-11T02:15:28;1.60;;;1.50;;
5163;SDS011;2601;50.224;10.126;2022-07-11T02:17:55;1.70;;;1.60;;
5163;SDS011;2601;50.224;10.126;2022-07-11T02:20:22;2.00;;;1.80;;
5163;SDS011;2601;50.224;10.126;2022-07-11T02:22:48;1.63;;;1.53;;
5163;SDS011;2601;50.224;10.126;2022-07-11T02:25:14;1.57;;;1.47;;
5163;SDS011;2601;50.224;10.126;2022-07-11T02:27:41;2.10;;;1.47;;
5163;SDS011;2601;50.224;10.126;2022-07-11T02:30:06;1.77;;;1.40;;
5163;SDS011;2601;50.224;10.126;2022-07-11T02:32:32;1.70;;;1.60;;
5163;SDS011;2601;50.224;10.126;2022-07-11T02:34:58;1.70;;;1.60;;
5163;SDS011;2601;50.224;10.126;2022-07-11T02:37:24;1.80;;;1.70;;
5163;SDS011;2601;50.224;10.126;2022-07-11T02:39:50;1.60;;;1.50;;
5163;SDS011;2601;50.224;10.126;2022-07-11T02:42:16;2.43;;;1.67;;
5163;SDS011;2601;50.224;10.126;2022-07-11T02:44:43;1.63;;;1.53;;
5163;SDS011;2601;50.224;10.126;2022-07-11T02:47:10;2.70;;;1.77;;
5163;SDS011;2601;50.224;10.126;2022-07-11T02:49:36;2.10;;;1.90;;
5163;SDS011;2601;50.224;10.126;2022-07-11T02:52:03;2.10;;;2.00;;
5163;SDS011;2601;50.224;10.126;2022-07-11T02:54:29;1.90;;;1.80;;
5163;SDS011;2601;50.224;10.126;2022-07-11T02:56:55;2.53;;;1.70;;
5163;SDS011;2601;50.224;10.126;2022-07-11T02:59:21;1.97;;;1.60;;
5163;SDS011;2601;50.224;10.126;2022-07-11T03:01:47;1.60;;;1.50;;
5163;SDS011;2601;50.224;10.126;2022-07-11T03:04:14;2.37;;;1.77;;
5163;SDS011;2601;50.224;10.126;2022-07-11T03:06:40;2.03;;;1.80;;
5163;SDS011;2601;50.224;10.126;2022-07-11T03:09:06;4.03;;;1.53;;
5163;SDS011;2601;50.224;10.126;2022-07-11T03:11:33;2.07;;;1.40;;
5163;SDS011;2601;50.224;10.126;2022-07-11T03:13:58;2.27;;;1.60;;
5163;SDS011;2601;50.224;10.126;2022-07-11T03:16:26;1.37;;;1.27;;
5163;SDS011;2601;50.224;10.126;2022-07-11T03:18:52;2.10;;;1.63;;
5163;SDS011;2601;50.224;10.126;2022-07-11T03:21:18;1.80;;;1.70;;
5163;SDS011;2601;50.224;10.126;2022-07-11T03:23:44;2.00;;;1.30;;
5163;SDS011;2601;50.224;10.126;2022-07-11T03:26:09;1.83;;;1.73;;
5163;SDS011;2601;50.224;10.126;2022-07-11T03:28:36;2.00;;;1.90;;
5163;SDS011;2601;50.224;10.126;2022-07-11T03:31:03;1.50;;;1.40;;
5163;SDS011;2601;50.224;10.126;2022-07-11T03:33:30;3.67;;;1.50;;
5163;SDS011;2601;50.224;10.126;2022-07-11T03:35:55;1.77;;;1.67;;
5163;SDS011;2601;50.224;10.126;2022-07-11T03:38:21;2.17;;;1.70;;
5163;SDS011;2601;50.224;10.126;2022-07-11T03:40:47;3.60;;;1.80;;
5163;SDS011;2601;50.224;10.126;2022-07-11T03:43:13;1.80;;;1.70;;
5163;SDS011;2601;50.224;10.126;2022-07-11T03:45:40;5.57;;;1.60;;
5163;SDS011;2601;50.224;10.126;2022-07-11T03:48:06;2.07;;;1.97;;
5163;SDS011;2601;50.224;10.126;2022-07-11T03:50:33;1.90;;;1.80;;
5163;SDS011;2601;50.224;10.126;2022-07-11T03:53:00;1.90;;;1.80;;
5163;SDS011;2601;50.224;10.126;2022-07-11T03:55:27;2.20;;;2.00;;
5163;SDS011;2601;50.224;10.126;2022-07-11T03:57:54;2.13;;;1.93;;
5163;SDS011;2601;50.224;10.126;2022-07-11T04:00:20;2.00;;;1.90;;
5163;SDS011;2601;50.224;10.126;2022-07-11T04:02:46;2.80;;;2.60;;
5163;SDS011;2601;50.224;10.126;2022-07-11T04:05:13;4.13;;;2.30;;
5163;SDS011;2601;50.224;10.126;2022-07-11T04:07:39;2.43;;;2.20;;
5163;SDS011;2601;50.224;10.126;2022-07-11T04:10:05;2.43;;;2.23;;
5163;SDS011;2601;50.224;10.126;2022-07-11T04:12:31;3.03;;;2.60;;
5163;SDS011;2601;50.224;10.126;2022-07-11T04:14:57;2.23;;;2.03;;
5163;SDS011;2601;50.224;10.126;2022-07-11T04:17:23;3.13;;;1.77;;
5163;SDS011;2601;50.224;10.126;2022-07-11T04:19:51;2.47;;;2.37;;
5163;SDS011;2601;50.224;10.126;2022-07-11T04:22:18;2.13;;;1.90;;
5163;SDS011;2601;50.224;10.126;2022-07-11T04:24:44;1.90;;;1.80;;
5163;SDS011;2601;50.224;10.126;2022-07-11T04:27:10;5.40;;;2.27;;
5163;SDS011;2601;50.224;10.126;2022-07-11T04:29:36;2.93;;;2.40;;
5163;SDS011;2601;50.224;10.126;2022-07-11T04:32:01;4.23;;;2.23;;
5163;SDS011;2601;50.224;10.126;2022-07-11T04:34:27;7.63;;;2.87;;
5163;SDS011;2601;50.224;10.126;2022-07-11T04:36:53;2.20;;;2.00;;
5163;SDS011;2601;50.224;10.126;2022-07-11T04:39:19;1.70;;;1.60;;
5163;SDS011;2601;50.224;10.126;2022-07-11T04:41:45;2.17;;;1.80;;
5163;SDS011;2601;50.224;10.126;2022-07-11T04:44:10;2.60;;;1.90;;
5163;SDS011;2601;50.224;10.126;2022-07-11T04:46:36;2.23;;;1.90;;
5163;SDS011;2601;50.224;10.126;2022-07-11T04:49:03;2.17;;;1.97;;
5163;SDS011;2601;50.224;10.126;2022-07-11T04:51:29;2.23;;;1.80;;
5163;SDS011;2601;50.224;10.126;2022-07-11T04:53:54;2.17;;;2.07;;
5163;SDS011;2601;50.224;10.126;2022-07-11T04:56:20;2.60;;;2.40;;
5163;SDS011;2601;50.224;10.126;2022-07-11T04:58:46;2.50;;;2.30;;
5163;SDS011;2601;50.224;10.126;2022-07-11T05:01:13;6.50;;;2.20;;
5163;SDS011;2601;50.224;10.126;2022-07-11T05:03:38;5.23;;;2.40;;
5163;SDS011;2601;50.224;10.126;2022-07-11T05:06:05;2.83;;;2.50;;
5163;SDS011;2601;50.224;10.126;2022-07-11T05:08:31;2.70;;;2.50;;
5163;SDS011;2601;50.224;10.126;2022-07-11T05:11:01;2.10;;;1.90;;
5163;SDS011;2601;50.224;10.126;2022-07-11T05:13:30;2.40;;;2.20;;
5163;SDS011;2601;50.224;10.126;2022-07-11T05:15:56;3.30;;;2.10;;
5163;SDS011;2601;50.224;10.126;2022-07-11T05:18:22;3.23;;;2.33;;
5163;SDS011;2601;50.224;10.126;2022-07-11T05:20:48;4.50;;;2.43;;
5163;SDS011;2601;50.224;10.126;2022-07-11T05:23:14;2.37;;;2.00;;
5163;SDS011;2601;50.224;10.126;2022-07-11T05:25:40;2.50;;;2.40;;
5163;SDS011;2601;50.224;10.126;2022-07-11T05:28:06;3.27;;;2.33;;
5163;SDS011;2601;50.224;10.126;2022-07-11T05:30:32;2.50;;;2.30;;
5163;SDS011;2601;50.224;10.126;2022-07-11T05:32:58;2.10;;;2.00;;
5163;SDS011;2601;50.224;10.126;2022-07-11T05:35:24;2.23;;;2.03;;
5163;SDS011;2601;50.224;10.126;2022-07-11T05:37:50;2.47;;;2.27;;
5163;SDS011;2601;50.224;10.126;2022-07-11T05:40:16;2.43;;;2.23;;
5163;SDS011;2601;50.224;10.126;2022-07-11T05:42:42;2.80;;;2.40;;
5163;SDS011;2601;50.224;10.126;2022-07-11T05:45:08;3.83;;;2.30;;
5163;SDS011;2601;50.224;10.126;2022-07-11T05:47:34;2.57;;;2.47;;
5163;SDS011;2601;50.224;10.126;2022-07-11T05:50:00;4.40;;;2.57;;
5163;SDS011;2601;50.224;10.126;2022-07-11T05:52:26;2.67;;;2.47;;
5163;SDS011;2601;50.224;10.126;2022-07-11T05:54:51;2.07;;;1.97;;
5163;SDS011;2601;50.224;10.126;2022-07-11T05:57:17;3.60;;;2.10;;
5163;SDS011;2601;50.224;10.126;2022-07-11T05:59:43;2.30;;;2.10;;
5163;SDS011;2601;50.224;10.126;2022-07-11T06:02:10;2.33;;;2.13;;
5163;SDS011;2601;50.224;10.126;2022-07-11T06:04:36;2.40;;;2.20;;
5163;SDS011;2601;50.224;10.126;2022-07-11T06:07:02;2.20;;;1.77;;
5163;SDS011;2601;50.224;10.126;2022-07-11T06:09:28;2.10;;;2.00;;
5163;SDS011;2601;50.224;10.126;2022-07-11T06:11:55;3.67;;;2.43;;
5163;SDS011;2601;50.224;10.126;2022-07-11T06:14:21;4.23;;;1.70;;
5163;SDS011;2601;50.224;10.126;2022-07-11T06:16:48;2.27;;;2.00;;
5163;SDS011;2601;50.224;10.126;2022-07-11T06:19:15;2.33;;;1.80;;
5163;SDS011;2601;50.224;10.126;2022-07-11T06:21:42;1.80;;;1.70;;
5163;SDS011;2601;50.224;10.126;2022-07-11T06:24:08;3.00;;;2.00;;
5163;SDS011;2601;50.224;10.126;2022-07-11T06:26:34;2.03;;;1.83;;
5163;SDS011;2601;50.224;10.126;2022-07-11T06:29:00;2.83;;;2.17;;
5163;SDS011;2601;50.224;10.126;2022-07-11T06:31:25;1.80;;;1.70;;
5163;SDS011;2601;50.224;10.126;2022-07-11T06:33:51;2.87;;;2.13;;
5163;SDS011;2601;50.224;10.126;2022-07-11T06:36:23;2.40;;;2.20;;
5163;SDS011;2601;50.224;10.126;2022-07-11T06:38:50;1.93;;;1.83;;
5163;SDS011;2601;50.224;10.126;2022-07-11T06:41:16;3.70;;;1.97;;
5163;SDS011;2601;50.224;10.126;2022-07-11T06:43:42;2.90;;;2.60;;
5163;SDS011;2601;50.224;10.126;2022-07-11T06:46:07;2.73;;;2.17;;
5163;SDS011;2601;50.224;10.126;2022-07-11T06:48:33;3.87;;;2.37;;
5163;SDS011;2601;50.224;10.126;2022-07-11T06:51:00;4.60;;;2.60;;
5163;SDS011;2601;50.224;10.126;2022-07-11T06:53:27;2.60;;;2.40;;
5163;SDS011;2601;50.224;10.126;2022-07-11T06:55:52;2.50;;;2.40;;
5163;SDS011;2601;50.224;10.126;2022-07-11T06:58:18;2.00;;;1.90;;
5163;SDS011;2601;50.224;10.126;2022-07-11T07:00:59;2.33;;;2.13;;
5163;SDS011;2601;50.224;10.126;2022-07-11T07:03:26;3.30;;;2.00;;
5163;SDS011;2601;50.224;10.126;2022-07-11T07:05:54;2.13;;;1.93;;
5163;SDS011;2601;50.224;10.126;2022-07-11T07:08:24;2.37;;;2.13;;
5163;SDS011;2601;50.224;10.126;2022-07-11T07:10:51;1.93;;;1.60;;
5163;SDS011;2601;50.224;10.126;2022-07-11T07:13:17;1.37;;;1.27;;
5163;SDS011;2601;50.224;10.126;2022-07-11T07:15:45;1.77;;;1.50;;
5163;SDS011;2601;50.224;10.126;2022-07-11T07:18:12;1.80;;;1.70;;
5163;SDS011;2601;50.224;10.126;2022-07-11T07:20:38;2.20;;;2.10;;
5163;SDS011;2601;50.224;10.126;2022-07-11T07:23:04;1.47;;;1.37;;
5163;SDS011;2601;50.224;10.126;2022-07-11T07:25:29;1.23;;;1.13;;
5163;SDS011;2601;50.224;10.126;2022-07-11T07:27:55;2.13;;;1.30;;
5163;SDS011;2601;50.224;10.126;2022-07-11T07:30:21;1.63;;;1.20;;
5163;SDS011;2601;50.224;10.126;2022-07-11T07:32:46;4.23;;;1.53;;
5163;SDS011;2601;50.224;10.126;2022-07-11T07:35:12;2.10;;;1.30;;
5163;SDS011;2601;50.224;10.126;2022-07-11T07:37:38;1.23;;;1.13;;
5163;SDS011;2601;50.224;10.126;2022-07-11T07:40:04;1.30;;;0.80;;
5163;SDS011;2601;50.224;10.126;2022-07-11T07:42:30;1.30;;;1.13;;
5163;SDS011;2601;50.224;10.126;2022-07-11T07:44:56;2.37;;;0.90;;
5163;SDS011;2601;50.224;10.126;2022-07-11T07:47:22;1.00;;;0.63;;
5163;SDS011;2601;50.224;10.126;2022-07-11T07:49:47;1.30;;;1.20;;
5163;SDS011;2601;50.224;10.126;2022-07-11T07:52:14;1.00;;;0.80;;
5163;SDS011;2601;50.224;10.126;2022-07-11T07:54:40;1.00;;;0.90;;
5163;SDS011;2601;50.224;10.126;2022-07-11T07:57:06;0.90;;;0.60;;
5163;SDS011;2601;50.224;10.126;2022-07-11T07:59:32;1.10;;;0.83;;
5163;SDS011;2601;50.224;10.126;2022-07-11T08:01:58;2.27;;;0.60;;
5163;SDS011;2601;50.224;10.126;2022-07-11T08:04:23;1.10;;;0.80;;
5163;SDS011;2601;50.224;10.126;2022-07-11T08:06:49;1.20;;;0.90;;
5163;SDS011;2601;50.224;10.126;2022-07-11T08:09:15;1.20;;;0.90;;
5163;SDS011;2601;50.224;10.126;2022-07-11T08:11:41;1.87;;;0.80;;
5163;SDS011;2601;50.224;10.126;2022-07-11T08:14:07;2.50;;;0.80;;
5163;SDS011;2601;50.224;10.126;2022-07-11T08:16:33;1.17;;;0.80;;
5163;SDS011;2601;50.224;10.126;2022-07-11T08:19:00;1.00;;;0.73;;
5163;SDS011;2601;50.224;10.126;2022-07-11T08:21:29;1.20;;;0.67;;
5163;SDS011;2601;50.224;10.126;2022-07-11T08:23:56;1.50;;;1.00;;
5163;SDS011;2601;50.224;10.126;2022-07-11T08:26:23;1.53;;;1.13;;
5163;SDS011;2601;50.224;10.126;2022-07-11T08:28:49;2.67;;;1.00;;
5163;SDS011;2601;50.224;10.126;2022-07-11T08:31:17;2.07;;;1.00;;
5163;SDS011;2601;50.224;10.126;2022-07-11T08:33:43;2.83;;;1.00;;
5163;SDS011;2601;50.224;10.126;2022-07-11T08:36:09;1.67;;;1.00;;
5163;SDS011;2601;50.224;10.126;2022-07-11T08:38:35;2.80;;;0.93;;
5163;SDS011;2601;50.224;10.126;2022-07-11T08:41:02;1.17;;;1.07;;
5163;SDS011;2601;50.224;10.126;2022-07-11T08:43:29;1.63;;;0.93;;
5163;SDS011;2601;50.224;10.126;2022-07-11T08:45:55;1.50;;;1.10;;
5163;SDS011;2601;50.224;10.126;2022-07-11T08:48:22;1.40;;;1.03;;
5163;SDS011;2601;50.224;10.126;2022-07-11T08:50:48;6.57;;;1.23;;
5163;SDS011;2601;50.224;10.126;2022-07-11T08:53:15;1.63;;;1.17;;
5163;SDS011;2601;50.224;10.126;2022-07-11T08:55:41;2.70;;;1.30;;
5163;SDS011;2601;50.224;10.126;2022-07-11T08:58:08;1.67;;;1.10;;
5163;SDS011;2601;50.224;10.126;2022-07-11T09:00:34;1.50;;;0.80;;
5163;SDS011;2601;50.224;10.126;2022-07-11T09:03:02;1.40;;;0.80;;
5163;SDS011;2601;50.224;10.126;2022-07-11T09:05:29;1.30;;;0.80;;
5163;SDS011;2601;50.224;10.126;2022-07-11T09:07:56;1.10;;;0.80;;
5163;SDS011;2601;50.224;10.126;2022-07-11T09:10:22;1.10;;;1.00;;
5163;SDS011;2601;50.224;10.126;2022-07-11T09:13:03;1.90;;;1.20;;
5163;SDS011;2601;50.224;10.126;2022-07-11T09:15:30;2.37;;;0.90;;
5163;SDS011;2601;50.224;10.126;2022-07-11T09:20:55;2.07;;;0.90;;
5163;SDS011;2601;50.224;10.126;2022-07-11T09:23:50;1.73;;;1.07;;
5163;SDS011;2601;50.224;10.126;2022-07-11T09:26:40;1.43;;;0.90;;
5163;SDS011;2601;50.224;10.126;2022-07-11T09:29:12;1.10;;;0.70;;
5163;SDS011;2601;50.224;10.126;2022-07-11T09:31:40;2.47;;;1.50;;
5163;SDS011;2601;50.224;10.126;2022-07-11T09:34:17;2.23;;;0.90;;
5163;SDS011;2601;50.224;10.126;2022-07-11T09:39:14;1.83;;;0.60;;
5163;SDS011;2601;50.224;10.126;2022-07-11T09:41:41;1.77;;;0.60;;
5163;SDS011;2601;50.224;10.126;2022-07-11T09:44:18;2.57;;;0.80;;
5163;SDS011;2601;50.224;10.126;2022-07-11T09:46:48;1.70;;;0.80;;
5163;SDS011;2601;50.224;10.126;2022-07-11T09:49:15;1.90;;;0.80;;
5163;SDS011;2601;50.224;10.126;2022-07-11T09:51:53;7.00;;;0.80;;
5163;SDS011;2601;50.224;10.126;2022-07-11T09:54:20;1.53;;;0.90;;
5163;SDS011;2601;50.224;10.126;2022-07-11T09:56:46;1.10;;;0.77;;
5163;SDS011;2601;50.224;10.126;2022-07-11T09:59:17;3.47;;;0.90;;
5163;SDS011;2601;50.224;10.126;2022-07-11T10:01:44;1.10;;;0.73;;
5163;SDS011;2601;50.224;10.126;2022-07-11T10:04:10;1.10;;;0.80;;
5163;SDS011;2601;50.224;10.126;2022-07-11T10:06:37;1.40;;;0.80;;
5163;SDS011;2601;50.224;10.126;2022-07-11T10:09:04;1.30;;;0.90;;
5163;SDS011;2601;50.224;10.126;2022-07-11T10:11:31;1.30;;;0.70;;
5163;SDS011;2601;50.224;10.126;2022-07-11T10:13:58;1.80;;;0.90;;
5163;SDS011;2601;50.224;10.126;2022-07-11T10:24:55;1.20;;;1.00;;
5163;SDS011;2601;50.224;10.126;2022-07-11T10:29:56;1.00;;;0.70;;
5163;SDS011;2601;50.224;10.126;2022-07-11T10:32:21;1.30;;;0.70;;
5163;SDS011;2601;50.224;10.126;2022-07-11T10:37:50;1.20;;;0.77;;
5163;SDS011;2601;50.224;10.126;2022-07-11T10:40:59;11.30;;;1.10;;
5163;SDS011;2601;50.224;10.126;2022-07-11T10:43:07;1.10;;;0.73;;
5163;SDS011;2601;50.224;10.126;2022-07-11T10:45:49;1.10;;;0.70;;
5163;SDS011;2601;50.224;10.126;2022-07-11T10:48:15;1.20;;;0.80;;
5163;SDS011;2601;50.224;10.126;2022-07-11T10:50:41;2.73;;;1.10;;
5163;SDS011;2601;50.224;10.126;2022-07-11T10:53:09;1.40;;;1.10;;
5163;SDS011;2601;50.224;10.126;2022-07-11T10:55:46;1.10;;;0.90;;
5163;SDS011;2601;50.224;10.126;2022-07-11T10:58:20;1.77;;;0.90;;
5163;SDS011;2601;50.224;10.126;2022-07-11T11:01:13;1.10;;;0.90;;
5163;SDS011;2601;50.224;10.126;2022-07-11T11:03:41;2.97;;;1.20;;
5163;SDS011;2601;50.224;10.126;2022-07-11T11:06:08;1.10;;;0.80;;
5163;SDS011;2601;50.224;10.126;2022-07-11T11:11:06;1.73;;;0.97;;
5163;SDS011;2601;50.224;10.126;2022-07-11T11:13:44;1.60;;;0.97;;
5163;SDS011;2601;50.224;10.126;2022-07-11T11:16:20;1.20;;;0.80;;
5163;SDS011;2601;50.224;10.126;2022-07-11T11:18:49;1.20;;;0.80;;
5163;SDS011;2601;50.224;10.126;2022-07-11T11:21:16;5.13;;;1.57;;
5163;SDS011;2601;50.224;10.126;2022-07-11T11:29:07;1.13;;;0.90;;
5163;SDS011;2601;50.224;10.126;2022-07-11T11:31:33;1.03;;;0.73;;
5163;SDS011;2601;50.224;10.126;2022-07-11T11:34:00;1.00;;;0.70;;
5163;SDS011;2601;50.224;10.126;2022-07-11T11:36:27;1.20;;;0.80;;
5163;SDS011;2601;50.224;10.126;2022-07-11T11:38:55;1.30;;;1.20;;
5163;SDS011;2601;50.224;10.126;2022-07-11T11:41:28;1.10;;;0.90;;
5163;SDS011;2601;50.224;10.126;2022-07-11T11:43:58;4.37;;;0.90;;
5163;SDS011;2601;50.224;10.126;2022-07-11T11:46:26;1.10;;;0.83;;
5163;SDS011;2601;50.224;10.126;2022-07-11T11:49:03;2.60;;;0.70;;
5163;SDS011;2601;50.224;10.126;2022-07-11T11:51:30;1.40;;;0.80;;
5163;SDS011;2601;50.224;10.126;2022-07-11T11:53:58;1.10;;;0.90;;
5163;SDS011;2601;50.224;10.126;2022-07-11T11:58:57;1.30;;;0.87;;
5163;SDS011;2601;50.224;10.126;2022-07-11T12:01:30;1.10;;;0.87;;
5163;SDS011;2601;50.224;10.126;2022-07-11T12:03:57;1.07;;;0.70;;
5163;SDS011;2601;50.224;10.126;2022-07-11T12:06:44;1.30;;;1.10;;
5163;SDS011;2601;50.224;10.126;2022-07-11T12:09:17;1.57;;;0.90;;
5163;SDS011;2601;50.224;10.126;2022-07-11T12:12:09;1.20;;;0.90;;
5163;SDS011;2601;50.224;10.126;2022-07-11T12:14:54;1.10;;;0.80;;
5163;SDS011;2601;50.224;10.126;2022-07-11T12:17:24;1.10;;;0.80;;
5163;SDS011;2601;50.224;10.126;2022-07-11T12:19:51;1.10;;;0.80;;
5163;SDS011;2601;50.224;10.126;2022-07-11T12:22:17;1.93;;;0.80;;
5163;SDS011;2601;50.224;10.126;2022-07-11T12:24:50;1.00;;;0.67;;
5163;SDS011;2601;50.224;10.126;2022-07-11T12:27:21;1.10;;;0.70;;
5163;SDS011;2601;50.224;10.126;2022-07-11T12:29:48;1.20;;;0.90;;
5163;SDS011;2601;50.224;10.126;2022-07-11T12:36:01;1.70;;;1.10;;
5163;SDS011;2601;50.224;10.126;2022-07-11T12:38:26;1.10;;;0.70;;
5163;SDS011;2601;50.224;10.126;2022-07-11T12:41:16;1.00;;;0.60;;
5163;SDS011;2601;50.224;10.126;2022-07-11T12:43:43;1.10;;;0.80;;
5163;SDS011;2601;50.224;10.126;2022-07-11T12:46:32;1.30;;;0.90;;
5163;SDS011;2601;50.224;10.126;2022-07-11T12:49:02;1.10;;;0.90;;
5163;SDS011;2601;50.224;10.126;2022-07-11T12:51:30;3.23;;;0.70;;
5163;SDS011;2601;50.224;10.126;2022-07-11T12:54:13;1.87;;;1.27;;
5163;SDS011;2601;50.224;10.126;2022-07-11T12:56:58;2.20;;;1.00;;
5163;SDS011;2601;50.224;10.126;2022-07-11T12:59:24;1.10;;;0.87;;
5163;SDS011;2601;50.224;10.126;2022-07-11T13:01:55;1.20;;;1.10;;
5163;SDS011;2601;50.224;10.126;2022-07-11T13:04:45;1.10;;;0.80;;
5163;SDS011;2601;50.224;10.126;2022-07-11T13:07:32;1.30;;;1.00;;
5163;SDS011;2601;50.224;10.126;2022-07-11T13:10:21;1.17;;;0.87;;
5163;SDS011;2601;50.224;10.126;2022-07-11T13:12:54;3.00;;;1.10;;
5163;SDS011;2601;50.224;10.126;2022-07-11T13:15:21;3.33;;;1.20;;
5163;SDS011;2601;50.224;10.126;2022-07-11T13:17:52;2.67;;;1.00;;
5163;SDS011;2601;50.224;10.126;2022-07-11T13:20:21;2.80;;;1.27;;
5163;SDS011;2601;50.224;10.126;2022-07-11T13:22:53;2.97;;;1.30;;
5163;SDS011;2601;50.224;10.126;2022-07-11T13:25:20;1.20;;;0.90;;
5163;SDS011;2601;50.224;10.126;2022-07-11T13:27:47;1.50;;;1.30;;
5163;SDS011;2601;50.224;10.126;2022-07-11T13:30:19;3.70;;;1.40;;
5163;SDS011;2601;50.224;10.126;2022-07-11T13:32:48;1.60;;;1.07;;
5163;SDS011;2601;50.224;10.126;2022-07-11T13:35:18;10.83;;;1.10;;
5163;SDS011;2601;50.224;10.126;2022-07-11T13:37:48;1.60;;;1.30;;
5163;SDS011;2601;50.224;10.126;2022-07-11T13:40:18;1.40;;;1.30;;
5163;SDS011;2601;50.224;10.126;2022-07-11T13:42:46;1.27;;;1.17;;
5163;SDS011;2601;50.224;10.126;2022-07-11T13:45:16;1.93;;;1.20;;
5163;SDS011;2601;50.224;10.126;2022-07-11T13:47:44;1.30;;;1.10;;
5163;SDS011;2601;50.224;10.126;2022-07-11T13:50:10;1.40;;;1.17;;
5163;SDS011;2601;50.224;10.126;2022-07-11T13:52:36;2.67;;;1.20;;
5163;SDS011;2601;50.224;10.126;2022-07-11T13:55:02;1.40;;;1.10;;
5163;SDS011;2601;50.224;10.126;2022-07-11T13:57:28;1.47;;;1.00;;
5163;SDS011;2601;50.224;10.126;2022-07-11T13:59:54;1.30;;;1.17;;
5163;SDS011;2601;50.224;10.126;2022-07-11T14:02:21;1.30;;;1.20;;
5163;SDS011;2601;50.224;10.126;2022-07-11T14:04:47;1.33;;;1.23;;
5163;SDS011;2601;50.224;10.126;2022-07-11T14:07:13;1.90;;;1.50;;
5163;SDS011;2601;50.224;10.126;2022-07-11T14:09:39;2.90;;;1.30;;
5163;SDS011;2601;50.224;10.126;2022-07-11T14:12:05;3.00;;;1.20;;
5163;SDS011;2601;50.224;10.126;2022-07-11T14:14:32;1.57;;;1.47;;
5163;SDS011;2601;50.224;10.126;2022-07-11T14:16:58;1.50;;;1.40;;
5163;SDS011;2601;50.224;10.126;2022-07-11T14:19:25;2.93;;;1.63;;
5163;SDS011;2601;50.224;10.126;2022-07-11T14:21:51;1.50;;;1.40;;
5163;SDS011;2601;50.224;10.126;2022-07-11T14:24:17;4.70;;;1.47;;
5163;SDS011;2601;50.224;10.126;2022-07-11T14:26:43;2.23;;;1.70;;
5163;SDS011;2601;50.224;10.126;2022-07-11T14:29:09;1.70;;;1.60;;
5163;SDS011;2601;50.224;10.126;2022-07-11T14:31:36;3.07;;;1.67;;
5163;SDS011;2601;50.224;10.126;2022-07-11T14:34:02;2.50;;;1.57;;
5163;SDS011;2601;50.224;10.126;2022-07-11T14:36:28;3.83;;;1.70;;
5163;SDS011;2601;50.224;10.126;2022-07-11T14:38:54;2.23;;;1.50;;
5163;SDS011;2601;50.224;10.126;2022-07-11T14:41:20;4.00;;;1.70;;
5163;SDS011;2601;50.224;10.126;2022-07-11T14:43:47;1.73;;;1.63;;
5163;SDS011;2601;50.224;10.126;2022-07-11T14:46:13;1.90;;;1.80;;
5163;SDS011;2601;50.224;10.126;2022-07-11T14:48:41;5.37;;;1.63;;
5163;SDS011;2601;50.224;10.126;2022-07-11T14:51:07;3.03;;;2.10;;
5163;SDS011;2601;50.224;10.126;2022-07-11T14:53:33;2.23;;;1.77;;
5163;SDS011;2601;50.224;10.126;2022-07-11T14:55:59;6.50;;;1.70;;
5163;SDS011;2601;50.224;10.126;2022-07-11T14:58:25;1.93;;;1.60;;
5163;SDS011;2601;50.224;10.126;2022-07-11T15:00:50;1.83;;;1.73;;
5163;SDS011;2601;50.224;10.126;2022-07-11T15:03:17;2.33;;;1.70;;
5163;SDS011;2601;50.224;10.126;2022-07-11T15:06:01;1.70;;;1.60;;
5163;SDS011;2601;50.224;10.126;2022-07-11T15:08:27;3.10;;;1.90;;
5163;SDS011;2601;50.224;10.126;2022-07-11T15:11:11;13.97;;;5.90;;
5163;SDS011;2601;50.224;10.126;2022-07-11T15:13:55;6.70;;;1.87;;
5163;SDS011;2601;50.224;10.126;2022-07-11T15:16:22;1.70;;;1.60;;
5163;SDS011;2601;50.224;10.126;2022-07-11T15:18:48;2.27;;;1.20;;
5163;SDS011;2601;50.224;10.126;2022-07-11T15:21:13;2.97;;;1.57;;
5163;SDS011;2601;50.224;10.126;2022-07-11T15:23:39;2.37;;;1.40;;
5163;SDS011;2601;50.224;10.126;2022-07-11T15:26:05;4.53;;;1.37;;
5163;SDS011;2601;50.224;10.126;2022-07-11T15:28:31;2.00;;;1.40;;
5163;SDS011;2601;50.224;10.126;2022-07-11T15:30:57;2.30;;;1.37;;
5163;SDS011;2601;50.224;10.126;2022-07-11T15:33:22;1.90;;;1.60;;
5163;SDS011;2601;50.224;10.126;2022-07-11T15:35:48;1.60;;;1.50;;
5163;SDS011;2601;50.224;10.126;2022-07-11T15:38:16;1.53;;;1.43;;